Time;durP1;ratioP1;P1;durP2;ratioP2;P2;SDS_P1;SDS_P2;PMS_P1;PMS_P2;Temp;Humidity;BMP_temperature;BMP_pressure;BME280_temperature;BME280_humidity;BME280_pressure;Samples;Min_cycle;Max_cycle;Signal;HPM_P1;HPM_P2
2022/04/08 00:00:22;;;;;;;26.33;25.43;;;21.70;46.60;;;;;;5071000;28;20440;-48
2022/04/08 00:02:50;;;;;;;26.60;25.67;;;21.70;46.60;;;;;;5071191;28;20444;-48
2022/04/08 00:05:16;;;;;;;26.20;25.30;;;21.70;46.60;;;;;;5073077;28;20504;-47
2022/04/08 00:07:43;;;;;;;27.10;26.10;;;21.60;46.50;;;;;;5075018;28;20459;-46
2022/04/08 00:10:11;;;;;;;27.47;26.53;;;21.60;46.60;;;;;;5074793;28;20862;-46
2022/04/08 00:12:37;;;;;;;26.60;25.70;;;21.60;46.60;;;;;;5075055;28;20455;-46
2022/04/08 00:15:05;;;;;;;27.00;26.00;;;21.50;46.60;;;;;;5074930;28;20448;-46
2022/04/08 00:17:33;;;;;;;28.57;27.57;;;21.50;47.20;;;;;;5074698;28;20490;-46
2022/04/08 00:20:00;;;;;;;27.37;26.40;;;21.50;46.80;;;;;;5074629;28;20826;-46
2022/04/08 00:22:27;;;;;;;27.63;26.63;;;21.60;46.90;;;;;;5074918;28;20455;-46
2022/04/08 00:24:54;;;;;;;27.63;26.53;;;21.60;46.60;;;;;;5074799;28;21001;-46
2022/04/08 00:27:21;;;;;;;27.10;26.20;;;21.70;46.60;;;;;;5074412;28;20470;-46
2022/04/08 00:29:47;;;;;;;26.97;26.03;;;21.60;46.60;;;;;;5074598;28;20815;-46
2022/04/08 00:32:14;;;;;;;27.50;26.50;;;21.60;46.70;;;;;;5074345;28;20454;-48
2022/04/08 00:34:42;;;;;;;27.50;26.50;;;21.60;46.80;;;;;;5074627;28;20443;-46
2022/04/08 00:37:09;;;;;;;27.33;26.33;;;21.60;46.80;;;;;;5074154;28;21024;-48
2022/04/08 00:39:36;;;;;;;27.63;26.67;;;21.50;46.60;;;;;;5074472;28;20485;-48
2022/04/08 00:42:03;;;;;;;27.67;26.57;;;21.40;46.60;;;;;;5074135;28;20951;-48
2022/04/08 00:44:31;;;;;;;27.70;26.70;;;21.40;46.80;;;;;;5074388;28;20454;-47
2022/04/08 00:46:58;;;;;;;27.60;26.60;;;21.40;47.00;;;;;;5074059;28;20455;-46
2022/04/08 00:49:24;;;;;;;28.10;27.10;;;21.50;47.00;;;;;;5074049;28;20451;-46
2022/04/08 00:51:53;;;;;;;27.67;26.67;;;21.50;46.90;;;;;;5074154;28;20443;-46
2022/04/08 00:54:21;;;;;;;27.50;26.50;;;21.60;47.00;;;;;;5074207;28;20922;-48
2022/04/08 00:56:49;;;;;;;28.47;27.47;;;21.60;47.00;;;;;;5073668;28;20849;-46
2022/04/08 00:59:17;;;;;;;28.10;27.10;;;21.60;47.50;;;;;;5073883;28;20446;-46
2022/04/08 01:01:44;;;;;;;28.20;27.10;;;21.50;46.80;;;;;;5074216;28;20440;-46
2022/04/08 01:04:11;;;;;;;28.40;27.40;;;21.50;46.80;;;;;;5073767;28;20436;-48
2022/04/08 01:06:38;;;;;;;28.63;27.63;;;21.50;46.80;;;;;;5073767;28;20467;-46
2022/04/08 01:09:07;;;;;;;28.20;27.20;;;21.50;46.80;;;;;;5073767;28;20446;-49
2022/04/08 01:11:34;;;;;;;28.43;27.43;;;21.40;46.90;;;;;;5073937;28;20448;-46
2022/04/08 01:14:08;;;;;;;26.87;25.97;;;21.40;47.10;;;;;;5073872;28;20447;-46
2022/04/08 01:16:35;;;;;;;27.97;26.87;;;21.50;47.20;;;;;;5072862;28;20467;-47
2022/04/08 01:19:02;;;;;;;26.97;26.03;;;21.60;47.00;;;;;;5073477;28;20440;-46
2022/04/08 01:21:29;;;;;;;26.90;25.90;;;21.60;46.80;;;;;;5073742;28;20452;-47
2022/04/08 01:23:57;;;;;;;26.77;25.77;;;21.60;46.80;;;;;;5073598;28;20504;-47
2022/04/08 01:26:26;;;;;;;26.97;25.97;;;21.60;46.80;;;;;;5073521;28;20958;-46
2022/04/08 01:28:54;;;;;;;26.93;25.93;;;21.50;46.80;;;;;;5073438;28;20685;-46
2022/04/08 01:31:21;;;;;;;27.57;26.57;;;21.50;46.90;;;;;;5073567;28;20447;-48
2022/04/08 01:33:48;;;;;;;26.93;26.03;;;21.50;47.00;;;;;;5073613;28;20455;-46
2022/04/08 01:36:15;;;;;;;27.23;26.23;;;21.40;47.00;;;;;;5073155;28;20482;-46
2022/04/08 01:38:41;;;;;;;26.97;25.97;;;21.40;47.00;;;;;;5072717;28;20478;-48
2022/04/08 01:41:08;;;;;;;26.13;25.23;;;21.40;47.00;;;;;;5072991;28;20444;-49
2022/04/08 01:43:36;;;;;;;26.87;25.90;;;21.30;47.00;;;;;;5073139;28;20894;-47
2022/04/08 01:46:03;;;;;;;26.10;25.20;;;21.60;47.00;;;;;;5071636;28;20439;-48
2022/04/08 01:48:30;;;;;;;25.57;24.67;;;21.60;46.80;;;;;;5073201;28;20443;-48
2022/04/08 01:50:57;;;;;;;27.10;26.20;;;21.60;46.80;;;;;;5073122;28;20481;-48
2022/04/08 01:53:23;;;;;;;27.87;26.87;;;21.60;46.80;;;;;;5073126;28;20561;-46
2022/04/08 01:55:50;;;;;;;27.50;26.50;;;21.60;46.80;;;;;;5072597;28;20977;-46
2022/04/08 01:58:17;;;;;;;27.27;26.37;;;21.60;46.80;;;;;;5072878;28;20487;-46
2022/04/08 02:00:45;;;;;;;25.90;25.00;;;21.60;46.90;;;;;;5073000;28;20447;-48
2022/04/08 02:03:12;;;;;;;26.80;25.90;;;21.50;46.80;;;;;;5072913;28;20833;-46
2022/04/08 02:05:39;;;;;;;26.20;25.30;;;21.40;46.80;;;;;;5072487;28;20451;-48
2022/04/08 02:08:06;;;;;;;27.63;26.63;;;21.40;47.00;;;;;;5072776;28;20464;-46
2022/04/08 02:10:32;;;;;;;27.93;26.93;;;21.30;47.00;;;;;;5072835;28;20448;-46
2022/04/08 02:12:59;;;;;;;28.13;27.13;;;21.30;47.20;;;;;;5072660;28;20458;-46
2022/04/08 02:15:31;;;;;;;27.60;26.70;;;21.60;47.10;;;;;;5072055;28;20447;-46
2022/04/08 02:17:59;;;;;;;28.40;27.40;;;21.80;46.70;;;;;;5072374;28;20490;-48
2022/04/08 02:20:26;;;;;;;27.67;26.70;;;21.70;46.60;;;;;;5072597;28;20454;-48
2022/04/08 02:22:53;;;;;;;28.80;27.80;;;21.70;46.60;;;;;;5072577;28;20455;-46
2022/04/08 02:25:20;;;;;;;28.00;27.00;;;21.60;46.70;;;;;;5072175;28;20451;-48
2022/04/08 02:27:47;;;;;;;27.30;26.40;;;21.60;46.80;;;;;;5071647;28;20470;-48
2022/04/08 02:30:14;;;;;;;27.50;26.50;;;21.60;46.90;;;;;;5072079;28;20447;-48
2022/04/08 02:32:40;;;;;;;28.20;27.20;;;21.50;46.80;;;;;;5072323;28;20447;-46
2022/04/08 02:35:09;;;;;;;27.90;26.90;;;21.50;46.80;;;;;;5071909;28;20918;-47
2022/04/08 02:37:36;;;;;;;28.27;27.27;;;21.50;46.90;;;;;;5071838;28;20483;-47
2022/04/08 02:40:03;;;;;;;29.47;28.47;;;21.40;46.90;;;;;;5072291;28;20444;-47
2022/04/08 02:42:31;;;;;;;28.60;27.50;;;21.40;47.00;;;;;;5072158;28;20444;-46
2022/04/08 02:44:58;;;;;;;28.07;27.07;;;21.50;47.30;;;;;;5071918;28;20479;-46
2022/04/08 02:47:25;;;;;;;28.83;27.83;;;21.70;47.00;;;;;;5071835;28;20478;-48
2022/04/08 02:49:52;;;;;;;28.80;27.80;;;21.70;46.70;;;;;;5072023;28;20470;-48
2022/04/08 02:52:20;;;;;;;28.90;27.90;;;21.70;46.70;;;;;;5071655;28;20447;-46
2022/04/08 02:54:46;;;;;;;29.33;28.27;;;21.70;46.70;;;;;;5072001;28;20451;-46
2022/04/08 02:57:13;;;;;;;27.30;26.40;;;21.60;46.70;;;;;;5071394;28;20554;-47
2022/04/08 02:59:40;;;;;;;28.73;27.63;;;21.60;46.70;;;;;;5072064;28;20443;-48
2022/04/08 03:02:07;;;;;;;30.40;29.20;;;21.60;46.80;;;;;;5071786;28;20450;-47
2022/04/08 03:04:33;;;;;;;31.13;30.03;;;21.50;46.80;;;;;;5051743;28;20468;-46
2022/04/08 03:07:01;;;;;;;29.73;28.67;;;21.50;46.80;;;;;;5051601;28;20467;-46
2022/04/08 03:09:29;;;;;;;31.33;30.13;;;21.40;46.90;;;;;;5051653;28;20539;-47
2022/04/08 03:11:56;;;;;;;29.50;28.40;;;21.40;47.00;;;;;;5051704;28;20793;-46
2022/04/08 03:14:22;;;;;;;30.37;29.27;;;21.40;47.10;;;;;;5052024;28;20451;-49
2022/04/08 03:16:49;;;;;;;28.60;27.60;;;21.60;47.10;;;;;;5051515;28;20822;-47
2022/04/08 03:19:18;;;;;;;28.90;27.90;;;21.60;46.90;;;;;;5051631;28;20489;-46
2022/04/08 03:21:44;;;;;;;27.57;26.57;;;21.60;46.90;;;;;;5051663;28;20819;-46
2022/04/08 03:24:12;;;;;;;26.63;25.67;;;21.60;46.80;;;;;;5068451;28;20451;-47
2022/04/08 03:26:40;;;;;;;26.27;25.27;;;21.60;46.90;;;;;;5071299;28;20506;-46
2022/04/08 03:29:07;;;;;;;25.77;24.87;;;21.60;46.80;;;;;;5071573;28;20501;-46
2022/04/08 03:31:33;;;;;;;24.90;24.00;;;21.60;46.80;;;;;;5071558;28;20442;-48
2022/04/08 03:34:01;;;;;;;24.13;23.23;;;21.50;46.80;;;;;;5071229;28;20443;-49
2022/04/08 03:36:28;;;;;;;26.03;25.03;;;21.50;46.90;;;;;;5071117;28;20498;-47
2022/04/08 03:38:55;;;;;;;25.13;24.03;;;21.40;46.80;;;;;;5071523;28;20483;-48
2022/04/08 03:41:22;;;;;;;25.27;24.30;;;21.40;46.80;;;;;;5077645;28;20443;-48
2022/04/08 03:43:50;;;;;;;25.80;24.80;;;21.40;46.80;;;;;;5078144;28;20447;-47
2022/04/08 03:46:16;;;;;;;24.53;23.53;;;21.60;46.70;;;;;;5077705;28;20450;-46
2022/04/08 03:48:43;;;;;;;25.20;24.30;;;21.80;46.50;;;;;;5078125;28;20445;-48
2022/04/08 03:51:10;;;;;;;24.47;23.57;;;21.80;46.50;;;;;;5077736;28;21011;-46
2022/04/08 03:53:37;;;;;;;24.80;23.90;;;21.70;46.50;;;;;;5077957;28;20451;-48
2022/04/08 03:56:05;;;;;;;24.47;23.57;;;21.80;46.60;;;;;;5077788;28;20801;-47
2022/04/08 03:58:32;;;;;;;26.63;25.63;;;21.90;46.70;;;;;;5077830;28;20498;-48
2022/04/08 04:01:00;;;;;;;27.93;26.90;;;22.10;46.60;;;;;;5077917;28;20627;-53
2022/04/08 04:03:27;;;;;;;28.50;27.40;;;22.30;46.50;;;;;;5077849;28;20942;-49
2022/04/08 04:05:54;;;;;;;28.47;27.47;;;22.50;46.30;;;;;;5077715;28;20443;-54
2022/04/08 04:08:20;;;;;;;28.30;27.20;;;22.60;46.10;;;;;;5077663;28;20474;-53
2022/04/08 04:10:47;;;;;;;30.67;29.47;;;22.60;45.90;;;;;;5077513;28;20443;-49
2022/04/08 04:13:14;;;;;;;29.87;28.77;;;22.70;45.80;;;;;;5077722;28;20443;-50
2022/04/08 04:15:41;;;;;;;30.80;29.70;;;22.70;45.80;;;;;;5077698;28;20459;-48
2022/04/08 04:18:09;;;;;;;30.40;29.20;;;22.70;45.70;;;;;;5077583;28;20495;-49
2022/04/08 04:20:36;;;;;;;28.80;27.57;;;22.70;45.70;;;;;;5077537;28;20475;-49
2022/04/08 04:23:03;;;;;;;29.00;28.00;;;22.70;45.70;;;;;;5077675;28;20454;-47
2022/04/08 04:25:30;;;;;;;28.50;27.50;;;22.70;45.80;;;;;;5077525;28;20447;-47
2022/04/08 04:27:57;;;;;;;30.33;29.23;;;22.70;45.90;;;;;;5077594;28;20467;-47
2022/04/08 04:30:26;;;;;;;30.20;29.10;;;22.90;46.00;;;;;;5077268;28;20439;-47
2022/04/08 04:32:55;;;;;;;29.87;28.67;;;23.00;45.70;;;;;;5077641;28;20543;-49
2022/04/08 04:35:23;;;;;;;31.00;29.73;;;23.10;45.50;;;;;;5077567;28;20453;-47
2022/04/08 04:37:49;;;;;;;27.90;26.90;;;23.10;45.30;;;;;;5077467;28;20491;-49
2022/04/08 04:40:16;;;;;;;29.73;28.40;;;23.20;45.30;;;;;;5077252;28;20806;-49
2022/04/08 04:42:43;;;;;;;30.70;29.10;;;23.30;45.70;;;;;;5077733;28;20807;-49
2022/04/08 04:45:13;;;;;;;29.40;28.10;;;23.30;46.60;;;;;;5077455;28;20443;-48
2022/04/08 04:47:40;;;;;;;10.90;8.90;;;23.30;47.00;;;;;;5077228;28;20499;-49
2022/04/08 04:50:07;;;;;;;9.50;8.57;;;23.50;51.00;;;;;;5077282;28;20447;-50
2022/04/08 04:52:36;;;;;;;10.37;8.60;;;23.80;50.40;;;;;;5073248;28;20446;-51
2022/04/08 04:55:03;;;;;;;7.80;7.30;;;23.90;48.30;;;;;;5074201;28;20444;-49
2022/04/08 04:57:30;;;;;;;9.00;8.20;;;23.90;46.30;;;;;;5073680;28;20483;-51
2022/04/08 04:59:56;;;;;;;7.70;7.30;;;23.90;44.90;;;;;;5073863;28;20475;-52
2022/04/08 05:02:23;;;;;;;7.97;7.57;;;23.80;44.00;;;;;;5074117;28;20458;-50
2022/04/08 05:04:50;;;;;;;7.37;7.07;;;23.80;43.40;;;;;;5074127;28;20447;-50
2022/04/08 05:07:16;;;;;;;9.17;8.57;;;23.70;42.90;;;;;;5073669;28;20820;-48
2022/04/08 05:09:45;;;;;;;7.07;6.70;;;23.60;42.10;;;;;;5073931;28;20455;-49
2022/04/08 05:12:11;;;;;;;8.13;7.73;;;23.50;41.80;;;;;;5073961;28;20447;-49
2022/04/08 05:14:38;;;;;;;7.50;7.10;;;23.40;41.30;;;;;;5073866;28;20451;-49
2022/04/08 05:17:05;;;;;;;7.10;6.90;;;23.30;41.00;;;;;;5073611;28;20468;-48
2022/04/08 05:19:32;;;;;;;7.70;7.40;;;23.30;41.00;;;;;;5073508;28;20857;-50
2022/04/08 05:21:59;;;;;;;7.17;6.97;;;23.20;41.00;;;;;;5073648;28;20833;-50
2022/04/08 05:24:26;;;;;;;7.20;6.90;;;23.30;41.80;;;;;;5073783;28;20458;-49
2022/04/08 05:26:54;;;;;;;7.33;6.80;;;23.30;42.40;;;;;;5073325;28;20462;-50
2022/04/08 05:29:20;;;;;;;6.90;6.60;;;23.40;42.80;;;;;;5073525;28;20439;-50
2022/04/08 05:31:48;;;;;;;7.07;6.87;;;23.40;43.00;;;;;;5073565;28;20554;-51
2022/04/08 05:34:14;;;;;;;7.00;6.80;;;23.30;43.20;;;;;;5073649;28;20471;-50
2022/04/08 05:36:41;;;;;;;6.93;6.63;;;23.30;43.50;;;;;;5073329;28;20470;-50
2022/04/08 05:39:08;;;;;;;7.10;6.90;;;23.30;43.90;;;;;;5073185;28;20850;-49
2022/04/08 05:41:34;;;;;;;6.47;6.37;;;23.30;44.10;;;;;;5073423;28;20447;-49
2022/04/08 05:44:03;;;;;;;7.47;7.17;;;23.20;44.20;;;;;;5073328;28;20458;-50
2022/04/08 05:46:29;;;;;;;7.20;6.90;;;23.20;44.50;;;;;;5072681;28;20464;-51
2022/04/08 05:48:56;;;;;;;7.33;7.00;;;23.20;44.70;;;;;;5073014;28;20451;-52
2022/04/08 05:51:23;;;;;;;8.33;7.90;;;23.10;45.00;;;;;;5072977;28;20452;-51
2022/04/08 05:53:50;;;;;;;6.80;6.50;;;23.10;45.20;;;;;;5073207;28;20440;-52
2022/04/08 05:56:16;;;;;;;6.90;6.70;;;23.10;45.20;;;;;;5072405;28;20452;-52
2022/04/08 05:58:43;;;;;;;6.87;6.60;;;23.10;45.50;;;;;;5073516;28;20483;-57
2022/04/08 06:01:11;;;;;;;6.90;6.50;;;23.10;45.60;;;;;;5073000;28;20451;-52
2022/04/08 06:03:38;;;;;;;7.00;6.80;;;23.00;45.70;;;;;;5072803;28;20447;-50
2022/04/08 06:06:05;;;;;;;7.43;7.13;;;23.00;45.70;;;;;;5072473;28;20934;-51
2022/04/08 06:08:32;;;;;;;7.00;6.80;;;23.00;45.60;;;;;;5072710;28;20501;-53
2022/04/08 06:10:59;;;;;;;7.40;7.20;;;23.00;45.50;;;;;;5072699;28;20486;-53
2022/04/08 06:13:26;;;;;;;7.33;7.10;;;23.00;45.30;;;;;;5072726;28;20969;-51
2022/04/08 06:15:54;;;;;;;7.80;7.20;;;23.00;45.20;;;;;;5072579;28;20444;-54
2022/04/08 06:18:22;;;;;;;7.80;7.60;;;23.00;45.10;;;;;;5072283;28;20487;-55
2022/04/08 06:20:49;;;;;;;7.27;7.07;;;22.90;45.00;;;;;;5072571;28;20454;-52
2022/04/08 06:23:15;;;;;;;6.40;6.30;;;22.90;45.50;;;;;;5072440;28;20447;-51
2022/04/08 06:25:42;;;;;;;7.07;6.87;;;22.90;44.90;;;;;;5072322;28;20448;-52
2022/04/08 06:28:09;;;;;;;6.70;6.50;;;22.90;44.90;;;;;;5072356;28;20463;-51
2022/04/08 06:30:38;;;;;;;6.60;6.50;;;22.80;44.80;;;;;;5072371;28;20447;-51
2022/04/08 06:33:06;;;;;;;7.20;6.70;;;22.80;44.80;;;;;;5072358;28;20454;-54
2022/04/08 06:35:34;;;;;;;7.00;6.80;;;22.80;44.90;;;;;;5072126;28;20440;-53
2022/04/08 06:38:02;;;;;;;6.70;6.50;;;22.70;44.80;;;;;;5072058;28;20463;-51
2022/04/08 06:40:31;;;;;;;7.00;6.90;;;22.70;44.90;;;;;;5072094;28;20490;-50
2022/04/08 06:42:59;;;;;;;7.10;6.80;;;22.60;44.80;;;;;;5072276;28;20469;-51
2022/04/08 06:45:27;;;;;;;7.00;6.80;;;22.60;44.90;;;;;;5071917;28;20455;-52
2022/04/08 06:47:54;;;;;;;7.37;7.17;;;22.60;44.90;;;;;;5071991;28;20831;-51
2022/04/08 06:50:21;;;;;;;6.70;6.40;;;22.60;44.90;;;;;;5072055;28;20958;-51
2022/04/08 06:52:50;;;;;;;6.97;6.77;;;22.50;44.90;;;;;;5072044;28;20454;-54
2022/04/08 06:55:16;;;;;;;7.00;6.80;;;22.50;44.90;;;;;;5071873;28;20454;-52
2022/04/08 06:57:43;;;;;;;7.23;7.03;;;22.50;45.00;;;;;;5071759;28;20475;-53
2022/04/08 07:00:12;;;;;;;6.70;6.60;;;22.40;44.90;;;;;;5071918;28;20483;-51
2022/04/08 07:02:39;;;;;;;6.87;6.70;;;22.40;45.00;;;;;;5071872;28;20463;-52
2022/04/08 07:05:07;;;;;;;7.73;7.53;;;22.40;45.00;;;;;;5071711;28;20443;-55
2022/04/08 07:07:35;;;;;;;7.60;7.40;;;22.40;45.00;;;;;;5071427;28;20977;-49
2022/04/08 07:10:04;;;;;;;7.20;7.00;;;22.30;45.00;;;;;;5071778;28;20451;-56
2022/04/08 07:12:31;;;;;;;6.87;6.77;;;22.30;45.00;;;;;;5071707;28;20451;-51
2022/04/08 07:14:58;;;;;;;6.50;6.30;;;22.30;45.10;;;;;;5071156;28;20443;-51
2022/04/08 07:17:29;;;;;;;7.87;7.67;;;22.20;45.00;;;;;;5071388;28;20463;-51
2022/04/08 07:19:56;;;;;;;7.97;7.73;;;22.20;45.10;;;;;;5071477;28;20841;-54
2022/04/08 07:22:23;;;;;;;7.13;7.03;;;22.10;45.00;;;;;;5071567;28;20455;-51
2022/04/08 07:24:50;;;;;;;7.10;7.00;;;22.10;45.10;;;;;;5071600;28;20443;-53
2022/04/08 07:27:19;;;;;;;7.53;7.33;;;22.10;45.20;;;;;;5071380;28;20468;-51
2022/04/08 07:29:47;;;;;;;6.80;6.70;;;22.00;45.10;;;;;;5071577;28;20444;-51
2022/04/08 07:32:20;;;;;;;7.00;6.90;;;22.00;45.20;;;;;;5071505;28;20452;-51
2022/04/08 07:34:47;;;;;;;7.37;7.17;;;22.00;45.20;;;;;;5071525;28;20501;-51
2022/04/08 07:37:14;;;;;;;7.50;7.23;;;22.00;45.20;;;;;;5071243;28;20468;-51
2022/04/08 07:39:42;;;;;;;6.93;6.83;;;22.10;45.10;;;;;;5071312;28;20506;-53
2022/04/08 07:42:10;;;;;;;6.93;6.83;;;22.10;45.00;;;;;;5071540;28;20451;-51
2022/04/08 07:44:38;;;;;;;7.90;7.53;;;22.30;44.90;;;;;;5071329;28;20809;-52
2022/04/08 07:47:05;;;;;;;7.13;6.90;;;22.30;44.70;;;;;;5071054;28;21002;-50
2022/04/08 07:49:32;;;;;;;6.80;6.70;;;22.40;44.50;;;;;;5071232;28;20447;-53
2022/04/08 07:51:59;;;;;;;6.70;6.50;;;22.50;44.40;;;;;;5071274;28;20448;-50
2022/04/08 07:54:26;;;;;;;6.43;6.23;;;22.50;44.20;;;;;;5071342;28;20474;-54
2022/04/08 07:56:52;;;;;;;6.23;6.13;;;22.60;44.20;;;;;;5070870;28;20482;-53
2022/04/08 07:59:19;;;;;;;7.23;7.03;;;22.60;44.10;;;;;;5071157;28;20490;-51
2022/04/08 08:01:48;;;;;;;6.77;6.57;;;22.60;44.00;;;;;;5071273;28;20447;-51
2022/04/08 08:04:15;;;;;;;7.57;7.43;;;22.60;44.00;;;;;;5071263;28;20439;-54
2022/04/08 08:06:41;;;;;;;7.03;6.80;;;22.60;44.00;;;;;;5070777;28;20978;-52
2022/04/08 08:09:08;;;;;;;7.53;7.33;;;22.60;44.00;;;;;;5071190;28;20450;-51
2022/04/08 08:11:35;;;;;;;6.73;6.63;;;22.60;43.90;;;;;;5071080;28;20447;-49
2022/04/08 08:14:02;;;;;;;7.10;6.90;;;22.60;44.00;;;;;;5070999;28;20443;-52
2022/04/08 08:16:28;;;;;;;7.23;7.13;;;22.60;44.00;;;;;;5070749;28;20483;-51
2022/04/08 08:18:57;;;;;;;7.63;7.40;;;22.60;44.00;;;;;;5070936;28;20953;-50
2022/04/08 08:21:24;;;;;;;6.90;6.80;;;22.50;44.00;;;;;;5071003;28;20447;-54
2022/04/08 08:23:51;;;;;;;7.13;7.03;;;22.50;44.00;;;;;;5070888;28;20451;-51
2022/04/08 08:26:18;;;;;;;7.20;7.10;;;22.50;44.10;;;;;;5071105;28;20447;-52
2022/04/08 08:28:44;;;;;;;7.70;7.50;;;22.50;44.10;;;;;;5074655;28;20964;-51
2022/04/08 08:31:11;;;;;;;7.13;7.03;;;22.40;44.00;;;;;;5074687;28;20452;-49
2022/04/08 08:33:39;;;;;;;7.23;7.13;;;22.40;44.10;;;;;;5074489;28;20960;-51
2022/04/08 08:36:08;;;;;;;6.60;6.40;;;22.40;44.10;;;;;;5074364;28;20958;-56
2022/04/08 08:38:35;;;;;;;6.90;6.80;;;22.30;44.10;;;;;;5074516;28;20448;-51
2022/04/08 08:41:03;;;;;;;7.73;7.53;;;22.30;44.10;;;;;;5074479;28;20490;-51
2022/04/08 08:43:29;;;;;;;7.20;7.10;;;22.30;44.70;;;;;;5074441;28;20942;-50
2022/04/08 08:45:57;;;;;;;7.43;7.27;;;22.30;44.20;;;;;;5074271;28;20969;-49
2022/04/08 08:48:25;;;;;;;7.30;7.10;;;22.30;44.20;;;;;;5074210;28;20474;-51
2022/04/08 08:50:54;;;;;;;7.40;7.30;;;22.20;44.30;;;;;;5074232;28;20439;-51
2022/04/08 08:53:23;;;;;;;7.40;7.30;;;22.20;44.30;;;;;;5074574;28;20968;-51
2022/04/08 08:55:49;;;;;;;7.00;6.70;;;22.20;44.30;;;;;;5074049;28;20440;-52
2022/04/08 08:58:18;;;;;;;7.90;7.70;;;22.10;44.40;;;;;;5074269;28;20471;-50
2022/04/08 09:00:44;;;;;;;6.23;6.13;;;22.10;44.40;;;;;;5074069;28;20486;-54
2022/04/08 09:03:11;;;;;;;6.60;6.40;;;22.00;44.40;;;;;;5074056;28;20863;-48
2022/04/08 09:05:43;;;;;;;6.90;6.80;;;22.00;44.40;;;;;;5074088;28;20443;-52
2022/04/08 09:08:12;;;;;;;6.00;5.90;;;22.00;44.50;;;;;;5073796;28;20471;-49
2022/04/08 09:10:44;;;;;;;6.03;5.93;;;22.00;44.60;;;;;;5074079;28;20447;-52
2022/04/08 09:13:11;;;;;;;5.60;5.50;;;22.00;44.60;;;;;;5073995;28;20773;-51
2022/04/08 09:15:40;;;;;;;6.30;6.20;;;21.90;44.60;;;;;;5073836;28;20949;-50
2022/04/08 09:18:12;;;;;;;6.10;6.00;;;21.90;44.70;;;;;;5073675;28;20474;-48
2022/04/08 09:20:41;;;;;;;6.50;6.40;;;21.80;44.70;;;;;;5073601;28;20483;-50
2022/04/08 09:23:09;;;;;;;5.90;5.80;;;21.80;44.70;;;;;;5073903;28;20455;-51
2022/04/08 09:25:37;;;;;;;6.50;6.40;;;21.80;44.80;;;;;;5073546;28;20581;-51
2022/04/08 09:28:09;;;;;;;6.67;6.57;;;21.80;44.80;;;;;;5073517;28;20468;-50
2022/04/08 09:30:36;;;;;;;6.70;6.60;;;21.80;44.80;;;;;;5073594;28;20814;-49
2022/04/08 09:33:12;;;;;;;6.40;6.20;;;21.90;44.80;;;;;;5073951;28;20444;-51
2022/04/08 09:35:40;;;;;;;5.97;5.87;;;22.00;44.70;;;;;;5073422;28;20443;-50
2022/04/08 09:38:07;;;;;;;6.37;6.27;;;22.10;44.50;;;;;;5072939;28;20467;-50
2022/04/08 09:40:38;;;;;;;6.50;6.37;;;22.20;44.40;;;;;;5073239;28;20479;-52
2022/04/08 09:43:05;;;;;;;6.73;6.63;;;22.30;44.20;;;;;;5073619;28;20451;-50
2022/04/08 09:45:34;;;;;;;6.90;6.80;;;22.40;44.60;;;;;;5073071;28;20455;-52
2022/04/08 09:48:01;;;;;;;6.40;6.30;;;22.50;44.00;;;;;;5072579;28;20475;-53
2022/04/08 09:50:28;;;;;;;6.40;6.30;;;22.50;43.80;;;;;;5073428;28;20447;-49
2022/04/08 09:52:55;;;;;;;6.47;6.37;;;22.50;44.40;;;;;;5073098;28;20448;-50
2022/04/08 09:55:23;;;;;;;7.30;7.10;;;22.40;45.50;;;;;;5073020;28;20475;-49
2022/04/08 09:57:54;;;;;;;8.17;7.87;;;22.30;45.90;;;;;;5072383;28;20510;-55
2022/04/08 10:00:21;;;;;;;7.40;7.20;;;22.30;45.90;;;;;;5072967;28;20483;-54
2022/04/08 10:02:51;;;;;;;6.40;6.30;;;22.30;46.00;;;;;;5072685;28;20520;-50
2022/04/08 10:05:20;;;;;;;6.67;6.47;;;22.30;46.50;;;;;;5072977;28;20479;-52
2022/04/08 10:07:49;;;;;;;7.33;7.13;;;22.20;46.50;;;;;;5072528;28;20878;-52
2022/04/08 10:10:21;;;;;;;7.00;6.80;;;22.20;46.60;;;;;;5072789;28;20448;-54
2022/04/08 10:13:09;;;;;;;7.50;7.30;;;22.20;46.90;;;;;;5072559;28;20448;-50
2022/04/08 10:15:38;;;;;;;7.10;6.90;;;22.20;47.10;;;;;;5068481;28;20451;-50
2022/04/08 10:18:07;;;;;;;6.90;6.70;;;22.10;47.20;;;;;;5072547;28;20471;-50
2022/04/08 10:20:35;;;;;;;6.40;6.30;;;22.10;47.40;;;;;;5072611;28;20483;-54
2022/04/08 10:23:06;;;;;;;6.70;6.50;;;22.10;47.50;;;;;;5072432;28;20544;-50
2022/04/08 10:25:38;;;;;;;6.57;6.37;;;22.10;47.70;;;;;;5072429;28;20995;-55
2022/04/08 10:28:06;;;;;;;6.60;6.40;;;22.10;47.70;;;;;;5072630;28;20470;-56
2022/04/08 10:30:35;;;;;;;7.30;7.00;;;22.10;47.80;;;;;;5072399;28;20931;-55
2022/04/08 10:33:04;;;;;;;6.70;6.50;;;22.00;47.80;;;;;;5072131;28;20861;-48
2022/04/08 10:35:33;;;;;;;7.13;7.00;;;22.00;47.70;;;;;;5072200;28;20444;-48
2022/04/08 10:38:01;;;;;;;6.33;6.03;;;22.10;47.80;;;;;;5072189;28;20829;-50
2022/04/08 10:40:33;;;;;;;7.03;6.83;;;22.10;47.60;;;;;;5072027;28;20480;-52
2022/04/08 10:43:01;;;;;;;6.00;5.90;;;22.10;47.50;;;;;;5072170;28;20947;-49
2022/04/08 10:45:29;;;;;;;6.43;6.33;;;22.10;47.30;;;;;;5072121;28;20448;-50
2022/04/08 10:48:00;;;;;;;6.67;6.47;;;22.10;47.10;;;;;;5072144;28;20467;-48
2022/04/08 10:50:28;;;;;;;6.60;6.50;;;22.10;47.00;;;;;;5071350;28;20444;-49
2022/04/08 10:53:07;;;;;;;7.30;7.10;;;22.10;46.90;;;;;;5072039;28;20450;-49
2022/04/08 10:55:49;;;;;;;6.90;6.80;;;22.10;46.80;;;;;;5071852;28;20471;-50
2022/04/08 10:58:16;;;;;;;6.90;6.50;;;22.10;46.70;;;;;;5071667;28;20481;-52
2022/04/08 11:00:44;;;;;;;7.00;6.80;;;22.10;46.70;;;;;;5071723;28;20544;-50
2022/04/08 11:03:11;;;;;;;7.03;6.83;;;22.00;46.60;;;;;;5072018;28;20999;-50
2022/04/08 11:05:39;;;;;;;6.90;6.70;;;22.00;46.60;;;;;;5071740;28;20444;-51
2022/04/08 11:08:08;;;;;;;7.60;7.50;;;22.00;46.50;;;;;;5072034;28;20460;-50
2022/04/08 11:10:35;;;;;;;7.30;6.90;;;21.90;46.50;;;;;;5071709;28;20464;-49
2022/04/08 11:13:02;;;;;;;6.80;6.60;;;21.90;46.50;;;;;;5071829;28;20443;-50
2022/04/08 11:15:30;;;;;;;6.80;6.70;;;21.90;46.50;;;;;;5071643;28;20439;-49
2022/04/08 11:17:59;;;;;;;7.30;7.13;;;21.90;46.50;;;;;;5071456;28;20495;-50
2022/04/08 11:20:26;;;;;;;7.20;7.00;;;21.90;46.50;;;;;;5071545;28;21025;-49
2022/04/08 11:22:54;;;;;;;6.93;6.73;;;21.80;46.40;;;;;;5071873;28;20444;-50
2022/04/08 11:25:24;;;;;;;7.13;7.03;;;21.90;46.40;;;;;;5071429;28;20447;-50
2022/04/08 11:28:02;;;;;;;7.40;7.20;;;21.90;46.40;;;;;;5071278;28;20471;-50
2022/04/08 11:30:30;;;;;;;7.07;6.97;;;22.00;46.20;;;;;;5071465;28;20935;-50
2022/04/08 11:32:57;;;;;;;7.07;6.87;;;22.10;46.10;;;;;;5071471;28;20452;-48
2022/04/08 11:35:28;;;;;;;6.50;6.40;;;22.20;45.90;;;;;;5071449;28;20474;-50
2022/04/08 11:37:55;;;;;;;7.13;7.03;;;22.30;45.60;;;;;;5071464;28;20886;-50
2022/04/08 11:40:23;;;;;;;7.57;7.37;;;22.40;45.30;;;;;;5071387;28;20487;-49
2022/04/08 11:42:50;;;;;;;7.63;7.33;;;22.50;45.10;;;;;;5071534;28;20450;-49
2022/04/08 11:45:17;;;;;;;6.93;6.73;;;22.60;45.00;;;;;;5071245;28;20953;-49
2022/04/08 11:47:48;;;;;;;6.90;6.80;;;22.60;44.90;;;;;;5071145;28;20499;-50
2022/04/08 11:50:24;;;;;;;6.80;6.70;;;22.70;44.80;;;;;;5071407;28;20447;-52
2022/04/08 11:52:55;;;;;;;6.90;6.70;;;22.70;44.70;;;;;;5071323;28;20512;-50
2022/04/08 11:55:27;;;;;;;6.20;6.10;;;22.70;44.70;;;;;;5071221;28;20448;-50
2022/04/08 11:57:55;;;;;;;7.30;7.13;;;22.70;44.60;;;;;;5071519;28;20479;-48
2022/04/08 12:00:27;;;;;;;7.40;7.23;;;22.70;44.60;;;;;;5071755;28;21062;-49
2022/04/08 12:02:57;;;;;;;7.33;7.20;;;22.70;44.60;;;;;;5075206;28;20452;-48
2022/04/08 12:05:27;;;;;;;7.13;7.03;;;22.70;44.50;;;;;;5074971;28;20443;-48
2022/04/08 12:07:56;;;;;;;8.17;7.93;;;22.70;44.50;;;;;;5075285;28;20983;-49
2022/04/08 12:10:24;;;;;;;7.90;7.63;;;22.70;44.50;;;;;;5075206;28;20756;-49
2022/04/08 12:12:53;;;;;;;7.00;6.90;;;22.70;45.00;;;;;;5075135;28;20961;-48
2022/04/08 12:15:21;;;;;;;8.23;8.03;;;22.70;44.50;;;;;;5075067;28;20450;-50
2022/04/08 12:17:48;;;;;;;7.27;7.10;;;22.60;44.50;;;;;;5074945;28;20463;-49
2022/04/08 12:20:16;;;;;;;7.60;7.50;;;22.60;44.40;;;;;;5074998;28;20494;-48
2022/04/08 12:22:45;;;;;;;8.00;7.80;;;22.60;44.50;;;;;;5074817;28;20443;-48
2022/04/08 12:25:13;;;;;;;7.30;7.10;;;22.60;44.50;;;;;;5074685;28;20448;-48
2022/04/08 12:27:40;;;;;;;7.50;7.40;;;22.60;44.50;;;;;;5074833;28;20474;-48
2022/04/08 12:30:09;;;;;;;7.00;6.90;;;22.60;44.50;;;;;;5074626;28;20451;-49
2022/04/08 12:32:38;;;;;;;7.10;7.00;;;22.50;44.50;;;;;;5074676;28;20450;-50
2022/04/08 12:35:08;;;;;;;8.53;8.23;;;22.50;45.00;;;;;;5074789;28;20451;-48
2022/04/08 12:37:35;;;;;;;7.33;7.23;;;22.50;44.50;;;;;;5074372;28;20510;-48
2022/04/08 12:40:02;;;;;;;7.27;7.10;;;22.50;44.60;;;;;;5074661;28;20440;-48